X  Close Metar Aviation Weather Data     LDPL Pula Airport
Temperature
79°F Temperature
70°F Dewpoint
74% Humidity



Wind
6 MPH
10 KM/H
3 M/S
5 KTS



290°
WNW
Current Conditions

Clear Clear
Pressure 1010.92 (hPa) - 29.85 (inHg)
Visibility 6.2 (mile) - 10 (km)
Airport
Airport-code LDPL

Location: Pula Airport
Distance: 39 (mi)

Metar:
LDPL 282330Z 29005KT CAVOK 26/21 Q1011

Time: 29-06-2022 01:30 CEST